createdAt,value
2018-07-21T00:00:57.045Z,17.60
2018-07-21T00:03:28.863Z,17.70
2018-07-21T00:06:00.559Z,17.70
2018-07-21T00:08:32.312Z,17.70
2018-07-21T00:11:04.034Z,17.80
2018-07-21T00:13:35.712Z,17.80
2018-07-21T00:16:07.523Z,17.80
2018-07-21T00:18:39.192Z,17.90
2018-07-21T00:21:11.000Z,17.90
2018-07-21T00:23:42.739Z,17.90
2018-07-21T00:26:14.461Z,17.90
2018-07-21T00:28:46.239Z,17.80
2018-07-21T00:31:18.199Z,17.90
2018-07-21T00:33:50.032Z,17.90
2018-07-21T00:36:21.791Z,17.90
2018-07-21T00:38:53.539Z,17.90
2018-07-21T00:41:25.351Z,17.80
2018-07-21T00:43:57.079Z,17.70
2018-07-21T00:49:00.079Z,17.70
2018-07-21T00:51:31.842Z,17.80
2018-07-21T00:54:03.631Z,17.90
2018-07-21T00:56:36.043Z,18.00
2018-07-21T00:59:07.823Z,17.80
2018-07-21T01:01:39.920Z,17.70
2018-07-21T01:04:11.609Z,17.60
2018-07-21T01:09:14.619Z,17.60
2018-07-21T01:11:46.477Z,17.70
2018-07-21T01:14:18.623Z,17.50
2018-07-21T01:16:50.399Z,17.60
2018-07-21T01:19:22.161Z,17.60
2018-07-21T01:21:53.879Z,17.80
2018-07-21T01:24:25.811Z,17.70
2018-07-21T01:26:57.896Z,17.60
2018-07-21T01:29:29.664Z,17.50
2018-07-21T01:32:01.706Z,17.40
2018-07-21T01:34:33.540Z,17.50
2018-07-21T01:37:05.321Z,17.50
2018-07-21T01:39:36.995Z,17.50
2018-07-21T01:42:08.654Z,17.50
2018-07-21T01:44:40.350Z,17.50
2018-07-21T01:47:12.083Z,17.50
2018-07-21T01:49:43.819Z,17.80
2018-07-21T01:52:15.617Z,17.90
2018-07-21T01:54:47.369Z,17.70
2018-07-21T01:57:19.118Z,17.70
2018-07-21T01:59:50.880Z,17.70
2018-07-21T02:02:22.678Z,17.50
2018-07-21T02:04:54.453Z,17.50
2018-07-21T02:07:26.164Z,17.50
2018-07-21T02:09:57.920Z,17.60
2018-07-21T02:12:29.681Z,17.80
2018-07-21T02:15:01.543Z,18.00
2018-07-21T02:20:04.455Z,17.80
2018-07-21T02:22:36.295Z,17.90
2018-07-21T02:25:08.751Z,18.00
2018-07-21T02:27:40.515Z,17.70
2018-07-21T02:30:12.323Z,17.70
2018-07-21T02:32:44.019Z,17.60
2018-07-21T02:35:15.791Z,17.50
2018-07-21T02:37:47.620Z,17.40
2018-07-21T02:42:50.519Z,17.40
2018-07-21T02:45:22.379Z,17.60
2018-07-21T02:47:54.079Z,17.60
2018-07-21T02:50:25.859Z,17.50
2018-07-21T02:52:57.623Z,17.20
2018-07-21T02:55:30.178Z,17.10
2018-07-21T02:58:01.981Z,17.20
2018-07-21T03:00:33.821Z,17.20
2018-07-21T03:03:05.579Z,17.30
2018-07-21T03:15:41.771Z,17.40
2018-07-21T03:18:13.483Z,17.30
2018-07-21T03:20:45.277Z,17.40
2018-07-21T03:23:16.960Z,17.40
2018-07-21T03:25:48.463Z,17.30
2018-07-21T03:28:20.172Z,17.40
2018-07-21T03:30:51.792Z,17.60
2018-07-21T03:33:23.399Z,17.40
2018-07-21T03:35:54.991Z,17.70
2018-07-21T03:38:26.559Z,17.70
2018-07-21T03:40:58.182Z,17.70
2018-07-21T03:43:29.791Z,17.50
2018-07-21T03:46:01.411Z,17.40
2018-07-21T03:48:32.963Z,17.40
2018-07-21T03:51:04.619Z,17.40
2018-07-21T03:53:36.187Z,17.00
2018-07-21T03:56:08.042Z,16.80
2018-07-21T03:58:39.639Z,16.90
2018-07-21T04:01:11.241Z,17.10
2018-07-21T04:03:42.731Z,17.10
2018-07-21T04:06:14.371Z,17.20
2018-07-21T04:08:45.971Z,17.30
2018-07-21T04:11:17.531Z,17.40
2018-07-21T04:13:49.171Z,17.20
2018-07-21T04:18:51.779Z,17.40
2018-07-21T04:21:23.396Z,17.50
2018-07-21T04:23:54.999Z,17.50
2018-07-21T04:26:26.643Z,17.60
2018-07-21T04:28:58.524Z,17.60
2018-07-21T04:31:30.200Z,17.40
2018-07-21T04:34:01.809Z,17.20
2018-07-21T04:36:33.421Z,16.90
2018-07-21T04:39:07.160Z,17.20
2018-07-21T04:41:38.799Z,17.30
2018-07-21T04:46:41.378Z,17.30
2018-07-21T04:49:12.931Z,17.20
2018-07-21T04:51:44.800Z,17.30
2018-07-21T04:54:16.540Z,17.30
2018-07-21T04:56:48.443Z,17.40
2018-07-21T04:59:20.259Z,17.50
2018-07-21T05:01:52.039Z,17.60
2018-07-21T05:04:24.026Z,17.60
2018-07-21T05:06:56.091Z,17.60
2018-07-21T05:09:27.779Z,17.80
2018-07-21T05:11:59.559Z,17.80
2018-07-21T05:14:31.643Z,17.70
2018-07-21T05:17:03.383Z,17.80
2018-07-21T05:19:35.176Z,17.80
2018-07-21T05:22:07.299Z,17.80
2018-07-21T05:24:39.084Z,17.80
2018-07-21T05:27:10.840Z,17.70
2018-07-21T05:29:42.879Z,17.80
2018-07-21T05:32:14.611Z,17.80
2018-07-21T05:34:46.359Z,17.80
2018-07-21T05:37:18.159Z,17.80
2018-07-21T05:39:49.896Z,17.80
2018-07-21T05:42:21.703Z,17.60
2018-07-21T05:44:53.353Z,17.50
2018-07-21T05:47:25.115Z,17.60
2018-07-21T05:49:56.851Z,17.50
2018-07-21T05:52:28.649Z,17.70
2018-07-21T05:55:00.400Z,17.80
2018-07-21T05:57:32.183Z,17.70
2018-07-21T06:00:03.934Z,17.70
2018-07-21T06:02:35.797Z,17.80
2018-07-21T06:05:08.126Z,17.80
2018-07-21T06:07:39.922Z,17.80
2018-07-21T06:10:11.699Z,17.80
2018-07-21T06:12:43.585Z,17.80
2018-07-21T06:15:15.623Z,17.80
2018-07-21T06:17:47.299Z,17.80
2018-07-21T06:20:19.062Z,17.80
2018-07-21T06:22:50.899Z,17.70
2018-07-21T06:25:22.606Z,17.60
2018-07-21T06:27:54.479Z,17.60
2018-07-21T06:30:27.035Z,17.60
2018-07-21T06:32:59.092Z,17.80
2018-07-21T06:35:30.819Z,17.80
2018-07-21T06:38:02.645Z,17.70
2018-07-21T06:40:34.406Z,17.70
2018-07-21T06:43:06.702Z,17.70
2018-07-21T06:45:38.411Z,17.70
2018-07-21T06:48:10.115Z,17.80
2018-07-21T06:50:41.714Z,17.70
2018-07-21T06:53:13.399Z,17.90
2018-07-21T06:55:45.032Z,18.00
2018-07-21T06:58:16.798Z,17.80
2018-07-21T07:00:48.918Z,17.90
2018-07-21T07:03:21.035Z,18.00
2018-07-21T07:05:53.303Z,18.10
2018-07-21T07:08:25.037Z,18.10
2018-07-21T07:10:56.743Z,18.20
2018-07-21T07:13:28.519Z,18.10
2018-07-21T07:16:00.213Z,18.20
2018-07-21T07:18:32.224Z,18.00
2018-07-21T07:21:03.939Z,18.00
2018-07-21T07:26:06.818Z,17.80
2018-07-21T07:28:38.567Z,17.80
2018-07-21T07:31:10.260Z,17.70
2018-07-21T07:33:41.964Z,17.80
2018-07-21T07:36:13.687Z,18.00
2018-07-21T07:38:45.574Z,18.10
2018-07-21T07:41:17.398Z,17.80
2018-07-21T07:43:49.134Z,17.70
2018-07-21T07:46:20.879Z,17.70
2018-07-21T07:51:23.698Z,17.90
2018-07-21T07:56:26.642Z,17.90
2018-07-21T07:58:58.642Z,18.00
2018-07-21T08:01:34.670Z,18.00
2018-07-21T08:04:08.394Z,18.00
2018-07-21T08:06:45.483Z,17.90
2018-07-21T08:09:19.667Z,17.90
2018-07-21T08:11:51.390Z,17.80
2018-07-21T08:14:24.865Z,18.00
2018-07-21T08:16:58.523Z,18.00
2018-07-21T08:19:30.534Z,17.90
2018-07-21T08:22:02.222Z,18.00
2018-07-21T08:24:34.077Z,18.00
2018-07-21T08:27:06.312Z,18.10
2018-07-21T08:29:38.299Z,18.30
2018-07-21T08:32:10.104Z,18.20
2018-07-21T08:34:42.027Z,18.30
2018-07-21T08:37:13.680Z,18.30
2018-07-21T08:39:45.864Z,18.30
2018-07-21T08:42:17.610Z,18.30
2018-07-21T08:44:49.323Z,18.20
2018-07-21T08:47:21.109Z,18.40
2018-07-21T08:52:24.057Z,18.40
2018-07-21T08:54:55.838Z,18.50
2018-07-21T08:57:27.634Z,18.50
2018-07-21T08:59:59.358Z,18.70
2018-07-21T09:02:31.083Z,18.70
2018-07-21T09:10:06.828Z,19.10
2018-07-21T09:12:38.591Z,19.20
2018-07-21T09:15:10.799Z,19.30
2018-07-21T09:17:42.519Z,19.50
2018-07-21T09:20:14.267Z,19.40
2018-07-21T09:22:46.020Z,19.20
2018-07-21T09:25:17.984Z,19.20
2018-07-21T09:27:49.701Z,19.40
2018-07-21T09:30:21.439Z,19.30
2018-07-21T09:32:53.127Z,19.30
2018-07-21T09:35:24.840Z,19.30
2018-07-21T09:37:56.902Z,19.50
2018-07-21T09:40:28.695Z,19.70
2018-07-21T09:43:00.419Z,19.60
2018-07-21T09:45:32.168Z,19.60
2018-07-21T09:48:04.143Z,19.70
2018-07-21T09:50:36.044Z,19.80
2018-07-21T09:53:07.839Z,19.70
2018-07-21T09:55:39.695Z,19.70
2018-07-21T09:58:11.727Z,19.60
2018-07-21T10:00:48.673Z,19.70
2018-07-21T10:03:20.503Z,19.50
2018-07-21T10:05:52.235Z,19.70
2018-07-21T10:08:24.072Z,19.60
2018-07-21T10:10:55.824Z,19.60
2018-07-21T10:13:27.703Z,19.80
2018-07-21T10:15:59.967Z,19.80
2018-07-21T10:18:31.704Z,19.70
2018-07-21T10:21:03.442Z,19.70
2018-07-21T10:23:35.471Z,19.70
2018-07-21T10:26:12.523Z,19.80
2018-07-21T10:28:49.421Z,19.90
2018-07-21T10:31:21.176Z,20.10
2018-07-21T10:33:52.815Z,20.00
2018-07-21T10:36:24.575Z,20.20
2018-07-21T10:38:56.483Z,20.50
2018-07-21T10:41:28.314Z,20.50
2018-07-21T10:44:00.040Z,20.50
2018-07-21T10:46:31.843Z,20.60
2018-07-21T10:49:03.623Z,20.40
2018-07-21T10:51:35.559Z,20.60
2018-07-21T10:54:07.851Z,20.50
2018-07-21T10:56:39.611Z,20.80
2018-07-21T10:59:11.484Z,21.00
2018-07-21T11:01:43.264Z,21.00
2018-07-21T11:04:15.191Z,21.20
2018-07-21T11:06:47.107Z,21.30
2018-07-21T11:09:18.874Z,21.40
2018-07-21T11:11:50.819Z,21.10
2018-07-21T11:14:23.015Z,21.00
2018-07-21T11:16:54.782Z,21.50
2018-07-21T11:19:26.558Z,21.60
2018-07-21T11:21:58.425Z,21.30
2018-07-21T11:24:30.347Z,21.30
2018-07-21T11:27:02.544Z,21.20
2018-07-21T11:29:34.124Z,21.20
2018-07-21T11:32:05.821Z,21.20
2018-07-21T11:34:37.563Z,21.40
2018-07-21T11:37:09.222Z,21.30
2018-07-21T11:39:40.866Z,21.50
2018-07-21T11:42:12.583Z,21.50
2018-07-21T11:44:44.184Z,21.40
2018-07-21T11:47:15.895Z,21.50
2018-07-21T11:49:48.396Z,21.60
2018-07-21T11:52:20.084Z,21.60
2018-07-21T11:54:52.516Z,21.40
2018-07-21T11:57:24.094Z,20.90
2018-07-21T11:59:55.723Z,21.20
2018-07-21T12:02:27.604Z,21.50
2018-07-21T12:04:59.592Z,21.50
2018-07-21T12:07:31.222Z,21.20
2018-07-21T12:10:02.855Z,21.20
2018-07-21T12:12:34.632Z,21.00
2018-07-21T12:15:06.377Z,20.90
2018-07-21T12:17:38.118Z,21.10
2018-07-21T12:20:09.783Z,21.20
2018-07-21T12:22:41.566Z,21.40
2018-07-21T12:25:13.202Z,21.50
2018-07-21T12:27:44.922Z,21.50
2018-07-21T12:30:16.731Z,21.60
2018-07-21T12:32:48.571Z,21.70
2018-07-21T12:35:20.283Z,21.70
2018-07-21T12:37:52.403Z,21.50
2018-07-21T12:40:24.183Z,21.50
2018-07-21T12:42:55.954Z,21.30
2018-07-21T12:45:27.633Z,21.50
2018-07-21T12:47:59.443Z,21.90
2018-07-21T12:53:02.295Z,22.00
2018-07-21T12:55:33.992Z,22.10
2018-07-21T12:58:05.895Z,22.20
2018-07-21T13:00:37.646Z,22.30
2018-07-21T13:03:09.692Z,22.40
2018-07-21T13:05:41.425Z,22.30
2018-07-21T13:08:13.335Z,22.40
2018-07-21T13:10:45.055Z,22.50
2018-07-21T13:13:16.807Z,22.20
2018-07-21T13:15:48.404Z,22.10
2018-07-21T13:18:20.046Z,21.90
2018-07-21T13:20:51.704Z,21.80
2018-07-21T13:23:23.367Z,21.80
2018-07-21T13:25:54.979Z,21.90
2018-07-21T13:28:26.624Z,21.80
2018-07-21T13:30:58.150Z,21.70
2018-07-21T13:33:29.745Z,21.60
2018-07-21T13:36:01.434Z,21.70
2018-07-21T13:38:33.103Z,21.70
2018-07-21T13:41:04.735Z,21.50
2018-07-21T13:43:36.300Z,21.50
2018-07-21T13:46:07.935Z,21.40
2018-07-21T13:48:39.560Z,21.40
2018-07-21T13:51:11.107Z,21.30
2018-07-21T13:53:42.775Z,21.40
2018-07-21T13:56:14.479Z,21.10
2018-07-21T13:58:46.070Z,21.30
2018-07-21T14:01:17.731Z,21.20
2018-07-21T14:03:49.799Z,21.20
2018-07-21T14:06:21.446Z,21.30
2018-07-21T14:08:52.995Z,21.20
2018-07-21T14:11:24.667Z,21.40
2018-07-21T14:13:56.492Z,21.50
2018-07-21T14:16:28.054Z,21.40
2018-07-21T14:18:59.683Z,21.50
2018-07-21T14:21:31.335Z,21.60
2018-07-21T14:24:03.116Z,21.40
2018-07-21T14:26:34.763Z,21.50
2018-07-21T14:29:06.595Z,21.40
2018-07-21T14:34:09.151Z,21.60
2018-07-21T14:36:40.802Z,21.50
2018-07-21T14:39:13.330Z,21.40
2018-07-21T14:41:45.100Z,21.40
2018-07-21T14:44:16.729Z,21.40
2018-07-21T14:46:48.277Z,21.50
2018-07-21T14:49:19.879Z,21.40
2018-07-21T14:51:51.735Z,21.30
2018-07-21T14:54:23.375Z,21.40
2018-07-21T14:56:55.028Z,21.30
2018-07-21T14:59:26.770Z,21.50
2018-07-21T15:01:58.361Z,21.50
2018-07-21T15:04:30.054Z,21.50
2018-07-21T15:07:01.723Z,21.70
2018-07-21T15:09:33.406Z,21.50
2018-07-21T15:12:05.122Z,21.40
2018-07-21T15:14:36.843Z,21.60
2018-07-21T15:17:08.494Z,21.60
2018-07-21T15:19:40.137Z,21.50
2018-07-21T15:22:11.746Z,21.40
2018-07-21T15:24:44.396Z,21.40
2018-07-21T15:27:16.063Z,21.40
2018-07-21T15:29:48.215Z,21.50
2018-07-21T15:32:19.804Z,21.40
2018-07-21T15:34:51.843Z,21.50
2018-07-21T15:37:23.503Z,21.50
2018-07-21T15:39:55.163Z,21.50
2018-07-21T15:42:27.102Z,21.30
2018-07-21T15:44:59.264Z,21.30
2018-07-21T15:47:30.812Z,21.20
2018-07-21T15:50:02.424Z,21.10
2018-07-21T15:52:33.955Z,20.50
2018-07-21T15:55:05.711Z,20.50
2018-07-21T15:57:37.405Z,20.40
2018-07-21T16:00:09.875Z,20.60
2018-07-21T16:02:41.647Z,20.70
2018-07-21T16:05:13.396Z,20.60
2018-07-21T16:07:45.175Z,20.50
2018-07-21T16:10:17.043Z,20.70
2018-07-21T16:12:48.756Z,20.70
2018-07-21T16:15:20.598Z,20.50
2018-07-21T16:17:52.375Z,20.50
2018-07-21T16:20:24.219Z,20.50
2018-07-21T16:22:55.969Z,20.40
2018-07-21T16:25:27.837Z,20.40
2018-07-21T16:28:00.313Z,20.50
2018-07-21T16:30:32.088Z,20.40
2018-07-21T16:33:03.698Z,20.50
2018-07-21T16:35:35.524Z,20.40
2018-07-21T16:38:07.363Z,20.40
2018-07-21T16:43:10.784Z,20.40
2018-07-21T16:45:42.578Z,20.30
2018-07-21T16:48:14.323Z,20.30
2018-07-21T16:50:46.463Z,20.20
2018-07-21T16:53:19.300Z,20.10
2018-07-21T16:55:51.047Z,20.00
2018-07-21T16:58:22.897Z,20.00
2018-07-21T17:00:55.280Z,19.90
2018-07-21T17:05:58.173Z,20.00
2018-07-21T17:08:29.912Z,20.00
2018-07-21T17:11:01.712Z,19.90
2018-07-21T17:13:33.567Z,19.90
2018-07-21T17:16:05.690Z,19.70
2018-07-21T17:18:39.257Z,19.60
2018-07-21T17:21:11.103Z,19.70
2018-07-21T17:23:42.928Z,19.60
2018-07-21T17:26:15.512Z,19.90
2018-07-21T17:31:18.572Z,19.70
2018-07-21T17:33:50.291Z,19.70
2018-07-21T17:38:53.219Z,19.70
2018-07-21T17:41:24.979Z,19.70
2018-07-21T17:43:56.567Z,19.50
2018-07-21T17:46:28.239Z,19.60
2018-07-21T17:49:00.428Z,19.60
2018-07-21T17:51:32.083Z,19.50
2018-07-21T17:54:03.864Z,19.30
2018-07-21T17:56:35.560Z,19.30
2018-07-21T17:59:07.261Z,19.40
2018-07-21T18:01:39.171Z,19.40
2018-07-21T18:04:11.247Z,19.50
2018-07-21T18:06:42.863Z,19.40
2018-07-21T18:09:14.000Z,19.30
2018-07-21T18:11:45.711Z,19.40
2018-07-21T18:14:17.353Z,19.50
2018-07-21T18:16:49.093Z,19.30
2018-07-21T18:19:20.629Z,19.10
2018-07-21T18:21:52.241Z,19.20
2018-07-21T18:24:23.959Z,19.00
2018-07-21T18:26:55.559Z,19.00
2018-07-21T18:29:27.175Z,19.00
2018-07-21T18:31:58.987Z,18.80
2018-07-21T18:34:30.812Z,18.90
2018-07-21T18:37:02.474Z,19.30
2018-07-21T18:39:34.199Z,19.20
2018-07-21T18:42:06.103Z,19.00
2018-07-21T18:44:38.240Z,18.50
2018-07-21T18:47:10.059Z,18.30
2018-07-21T18:49:41.780Z,18.40
2018-07-21T18:52:13.994Z,18.50
2018-07-21T18:54:45.740Z,18.20
2018-07-21T18:57:17.574Z,18.40
2018-07-21T18:59:49.539Z,18.60
2018-07-21T19:02:22.140Z,18.60
2018-07-21T19:04:53.912Z,18.70
2018-07-21T19:07:25.703Z,18.40
2018-07-21T19:09:57.900Z,18.20
2018-07-21T19:12:34.684Z,18.10
2018-07-21T19:15:07.028Z,18.00
2018-07-21T19:17:39.266Z,18.00
2018-07-21T19:20:16.072Z,18.10
2018-07-21T19:22:47.839Z,18.10
2018-07-21T19:25:25.177Z,18.20
2018-07-21T19:27:56.940Z,18.10
2018-07-21T19:30:28.659Z,18.00
2018-07-21T19:33:01.685Z,17.80
2018-07-21T19:35:33.311Z,17.90
2018-07-21T19:38:05.143Z,17.60
2018-07-21T19:40:36.743Z,17.50
2018-07-21T19:43:08.429Z,17.80
2018-07-21T19:45:40.182Z,17.70
2018-07-21T19:48:11.879Z,17.50
2018-07-21T19:50:43.506Z,17.80
2018-07-21T19:53:15.163Z,17.90
2018-07-21T19:55:47.375Z,18.00
2018-07-21T19:58:19.500Z,18.00
2018-07-21T20:00:51.877Z,18.20
2018-07-21T20:03:24.105Z,18.10
2018-07-21T20:05:56.058Z,17.80
2018-07-21T20:08:27.859Z,17.60
2018-07-21T20:10:59.675Z,17.30
2018-07-21T20:13:31.497Z,17.20
2018-07-21T20:16:03.198Z,17.10
2018-07-21T20:18:35.019Z,17.00
2018-07-21T20:21:06.841Z,17.00
2018-07-21T20:23:38.599Z,17.30
2018-07-21T20:26:10.422Z,17.70
2018-07-21T20:28:43.173Z,17.60
2018-07-21T20:31:14.952Z,17.40
2018-07-21T20:33:46.792Z,17.10
2018-07-21T20:36:18.824Z,17.20
2018-07-21T20:38:50.707Z,17.20
2018-07-21T20:41:22.543Z,17.30
2018-07-21T20:43:54.283Z,17.50
2018-07-21T20:46:26.187Z,17.80
2018-07-21T20:48:58.979Z,17.80
2018-07-21T20:51:30.635Z,17.50
2018-07-21T20:54:02.475Z,17.40
2018-07-21T20:56:34.267Z,17.50
2018-07-21T20:59:06.118Z,17.30
2018-07-21T21:01:37.923Z,17.20
2018-07-21T21:04:09.706Z,17.40
2018-07-21T21:06:42.279Z,17.40
2018-07-21T21:09:14.036Z,17.30
2018-07-21T21:11:45.803Z,17.50
2018-07-21T21:14:19.195Z,17.50
2018-07-21T21:16:50.943Z,17.40
2018-07-21T21:19:22.731Z,17.20
2018-07-21T21:21:54.619Z,17.50
2018-07-21T21:24:26.897Z,17.10
2018-07-21T21:26:58.674Z,17.30
2018-07-21T21:29:30.457Z,17.40
2018-07-21T21:32:02.523Z,17.30
2018-07-21T21:34:34.388Z,17.40
2018-07-21T21:37:06.383Z,17.50
2018-07-21T21:39:38.151Z,17.40
2018-07-21T21:42:09.774Z,17.20
2018-07-21T21:44:41.399Z,17.40
2018-07-21T21:47:13.031Z,17.30
2018-07-21T21:49:44.665Z,17.10
2018-07-21T21:52:16.218Z,17.00
2018-07-21T21:54:47.784Z,17.10
2018-07-21T21:57:19.579Z,17.40
2018-07-21T21:59:51.094Z,17.50
2018-07-21T22:02:22.719Z,17.50
2018-07-21T22:04:54.359Z,17.40
2018-07-21T22:07:26.012Z,17.50
2018-07-21T22:09:57.591Z,17.50
2018-07-21T22:12:29.218Z,17.60
2018-07-21T22:15:00.831Z,17.50
2018-07-21T22:17:32.412Z,17.10
2018-07-21T22:20:04.108Z,17.10
2018-07-21T22:22:35.697Z,17.10
2018-07-21T22:25:07.464Z,17.20
2018-07-21T22:27:39.082Z,17.00
2018-07-21T22:30:15.675Z,17.10
2018-07-21T22:32:47.247Z,17.00
2018-07-21T22:35:18.899Z,16.80
2018-07-21T22:37:50.555Z,16.70
2018-07-21T22:40:22.363Z,16.80
2018-07-21T22:42:53.955Z,16.70
2018-07-21T22:45:25.583Z,16.80
2018-07-21T22:47:57.163Z,17.10
2018-07-21T22:50:28.791Z,17.00
2018-07-21T22:53:00.368Z,16.90
2018-07-21T22:55:32.044Z,16.90
2018-07-21T22:58:03.643Z,16.90
2018-07-21T23:00:35.243Z,16.70
2018-07-21T23:03:06.863Z,16.70
2018-07-21T23:05:38.534Z,16.80
2018-07-21T23:08:10.127Z,16.60
2018-07-21T23:10:41.963Z,16.60
2018-07-21T23:13:13.571Z,16.60
2018-07-21T23:15:45.183Z,16.70
2018-07-21T23:18:16.835Z,16.70
2018-07-21T23:20:48.506Z,16.60
2018-07-21T23:23:20.143Z,16.70
2018-07-21T23:25:51.783Z,16.80
2018-07-21T23:28:23.392Z,16.70
2018-07-21T23:30:55.037Z,16.90
2018-07-21T23:33:27.261Z,16.90
2018-07-21T23:35:59.978Z,16.80
2018-07-21T23:38:31.566Z,16.70
2018-07-21T23:41:03.359Z,16.90
2018-07-21T23:43:35.099Z,16.90
2018-07-21T23:46:07.134Z,16.90
2018-07-21T23:51:10.016Z,16.70
2018-07-21T23:53:41.735Z,16.70
2018-07-21T23:56:14.478Z,16.80
